地図

経路データ

SID SEASON NUMBER BASIN SUBBASIN NAME ISO_TIME NATURE LAT LON WMO_WIND WMO_PRES WMO_AGENCY TRACK_TYPE DIST2LAND LANDFALL IFLAG USA_AGENCY USA_ATCF_ID USA_LAT USA_LON USA_RECORD USA_STATUS USA_WIND USA_PRES USA_SSHS USA_R34_NE USA_R34_SE USA_R34_SW USA_R34_NW USA_R50_NE USA_R50_SE USA_R50_SW USA_R50_NW USA_R64_NE USA_R64_SE USA_R64_SW USA_R64_NW USA_POCI USA_ROCI USA_RMW USA_EYE TOKYO_LAT TOKYO_LON TOKYO_GRADE TOKYO_WIND TOKYO_PRES TOKYO_R50_DIR TOKYO_R50_LONG TOKYO_R50_SHORT TOKYO_R30_DIR TOKYO_R30_LONG TOKYO_R30_SHORT TOKYO_LAND CMA_LAT CMA_LON CMA_CAT CMA_WIND CMA_PRES HKO_LAT HKO_LON HKO_CAT HKO_WIND HKO_PRES NEWDELHI_LAT NEWDELHI_LON NEWDELHI_GRADE NEWDELHI_WIND NEWDELHI_PRES NEWDELHI_CI NEWDELHI_DP NEWDELHI_POCI REUNION_LAT REUNION_LON REUNION_TYPE REUNION_WIND REUNION_PRES REUNION_TNUM REUNION_CI REUNION_RMW REUNION_R34_NE REUNION_R34_SE REUNION_R34_SW REUNION_R34_NW REUNION_R50_NE REUNION_R50_SE REUNION_R50_SW REUNION_R50_NW REUNION_R64_NE REUNION_R64_SE REUNION_R64_SW REUNION_R64_NW BOM_LAT BOM_LON BOM_TYPE BOM_WIND BOM_PRES BOM_TNUM BOM_CI BOM_RMW BOM_R34_NE BOM_R34_SE BOM_R34_SW BOM_R34_NW BOM_R50_NE BOM_R50_SE BOM_R50_SW BOM_R50_NW BOM_R64_NE BOM_R64_SE BOM_R64_SW BOM_R64_NW BOM_ROCI BOM_POCI BOM_EYE BOM_POS_METHOD BOM_PRES_METHOD NADI_LAT NADI_LON NADI_CAT NADI_WIND NADI_PRES WELLINGTON_LAT WELLINGTON_LON WELLINGTON_WIND WELLINGTON_PRES DS824_LAT DS824_LON DS824_STAGE DS824_WIND DS824_PRES TD9636_LAT TD9636_LON TD9636_STAGE TD9636_WIND TD9636_PRES TD9635_LAT TD9635_LON TD9635_WIND TD9635_PRES TD9635_ROCI NEUMANN_LAT NEUMANN_LON NEUMANN_CLASS NEUMANN_WIND NEUMANN_PRES MLC_LAT MLC_LON MLC_CLASS MLC_WIND MLC_PRES USA_GUST BOM_GUST BOM_GUST_PER REUNION_GUST REUNION_GUST_PER USA_SEAHGT USA_SEARAD_NE USA_SEARAD_SE USA_SEARAD_SW USA_SEARAD_NW STORM_SPEED STORM_DIR
1958016S18060 1958 6 SI MM NOT_NAMED 1958-01-16 06:00:00 TS -18.2000 59.5000 main 284 252 O________OO___ jtwc_sh SH091958 -18.2000 59.5000 -1 -18.2000 59.5000 TC 25 -18.2000 59.5000 7 9 0
1958016S18060 1958 6 SI MM NOT_NAMED 1958-01-16 09:00:00 TS -18.6564 59.4994 main 245 225 P________PP___ SH091958 -18.6775 59.4876 -1 -18.6775 59.4876 TC 25 -18.6142 59.5232 7 9 178
1958016S18060 1958 6 SI MM NOT_NAMED 1958-01-16 12:00:00 TS -19.0709 59.5157 main 219 203 O________OP___ jtwc_sh SH091958 -19.1000 59.5000 -1 -19.1000 59.5000 TC 25 -19.0127 59.5471 7 8 176
1958016S18060 1958 6 SI MM NOT_NAMED 1958-01-16 15:00:00 TS -19.4133 59.5575 main 213 199 P________PP___ SH091958 -19.4300 59.5499 -1 -19.4300 59.5499 TC 25 -19.3799 59.5725 7 6 173
1958016S18060 1958 6 SI MM NOT_NAMED 1958-01-16 18:00:00 TS -19.7000 59.6000 main 199 190 O________OO___ jtwc_sh SH091958 -19.7000 59.6000 -1 -19.7000 59.6000 TC 25 -19.7000 59.6000 1 6 176
1958016S18060 1958 6 SI MM NOT_NAMED 1958-01-16 21:00:00 TS -19.9646 59.5965 main 190 188 P________PP___ SH091958 -19.9650 59.5777 -1 -19.9650 59.5777 TC 25 -19.9637 59.6342 1 5 175
1958016S18060 1958 6 SI MM NOT_NAMED 1958-01-17 00:00:00 TS -20.1957 59.6319 main 188 188 O________OP___ jtwc_sh SH091958 -20.2000 59.6000 -1 -20.2000 59.6000 TC 25 -20.1869 59.6958 1 5 159
1958016S18060 1958 6 SI MM NOT_NAMED 1958-01-17 03:00:00 TS -20.3972 59.7682 main 208 208 P________PP___ SH091958 -20.3999 59.7476 -1 -20.3999 59.7476 TC 25 -20.3917 59.8095 1 5 140
1958016S18060 1958 6 SI MM NOT_NAMED 1958-01-17 06:00:00 TS -20.6000 60.0000 main 231 231 O________OO___ jtwc_sh SH091958 -20.6000 60.0000 -1 -20.6000 60.0000 TC 25 -20.6000 60.0000 1 7 132
1958016S18060 1958 6 SI MM NOT_NAMED 1958-01-17 09:00:00 TS -20.8495 60.3118 main 266 266 P________PP___ SH091958 -20.8425 60.3200 -1 -20.8425 60.3200 TC 25 -20.8635 60.2953 1 8 128
1958016S18060 1958 6 SI MM NOT_NAMED 1958-01-17 12:00:00 TS -21.1102 60.6889 main 314 314 O________OP___ jtwc_sh SH091958 -21.1000 60.7000 -1 -21.1000 60.7000 TC 25 -21.1305 60.6666 1 9 126
1958016S18060 1958 6 SI MM NOT_NAMED 1958-01-17 15:00:00 TS -21.3707 61.0932 main 364 364 P________PP___ SH091958 -21.3650 61.0999 -1 -21.3650 61.0999 TC 25 -21.3822 61.0797 1 9 123
1958016S18060 1958 6 SI MM NOT_NAMED 1958-01-17 18:00:00 TS -21.6000 61.5000 main 410 410 O________OO___ jtwc_sh SH091958 -21.6000 61.5000 -1 -21.6000 61.5000 TC 25 -21.6000 61.5000 1 8 120
1958016S18060 1958 6 SI MM NOT_NAMED 1958-01-17 21:00:00 TS -21.7621 61.8213 main 447 447 P________PP___ SH091958 -21.7723 61.8502 -1 -21.7723 61.8502 TC 25 -21.7417 61.7635 1 7 115
1958016S18060 1958 6 SI MM NOT_NAMED 1958-01-18 00:00:00 TS -21.8841 62.1478 main 480 480 O________OP___ jtwc_sh SH091958 -21.9000 62.2000 -1 -21.9000 62.2000 TC 25 -21.8524 62.0435 1 7 109
1958016S18060 1958 6 SI MM NOT_NAMED 1958-01-18 03:00:00 TS -21.9769 62.4876 main 523 523 P________PP___ SH091958 -21.9842 62.5182 -1 -21.9842 62.5182 TC 25 -21.9622 62.4266 1 8 105
1958016S18060 1958 6 SI MM NOT_NAMED 1958-01-18 06:00:00 TS -22.1000 63.0000 main 575 575 O________OO___ jtwc_sh SH091958 -22.1000 63.0000 -1 -22.1000 63.0000 TC 25 -22.1000 63.0000 1 13 106
1958016S18060 1958 6 SI MM NOT_NAMED 1958-01-18 09:00:00 TS -22.3264 63.8004 main 660 660 P________PP___ SH091958 -22.3345 63.7724 -1 -22.3345 63.7724 TC 25 -22.3103 63.8565 1 18 106
1958016S18060 1958 6 SI MM NOT_NAMED 1958-01-18 12:00:00 TS -22.5816 64.8363 main 768 768 O________OP___ jtwc_sh SH091958 -22.6000 64.8000 -1 -22.6000 64.8000 TC 25 -22.5449 64.9088 1 21 103
1958016S18060 1958 6 SI MM NOT_NAMED 1958-01-18 15:00:00 TS -22.8039 66.0258 main 892 892 P________PP___ SH091958 -22.8151 65.9977 -1 -22.8151 65.9977 TC 25 -22.7815 66.0819 1 23 100
1958016S18060 1958 6 SI MM NOT_NAMED 1958-01-18 18:00:00 TS -23.0000 67.3000 main 1026 1026 O________OO___ jtwc_sh SH091958 -23.0000 67.3000 -1 -23.0000 67.3000 TC 25 -23.0000 67.3000 1 24 99
1958016S18060 1958 6 SI MM NOT_NAMED 1958-01-18 21:00:00 TS -23.1651 68.5537 main 1160 1160 P________PP___ SH091958 -23.1570 68.5729 -1 -23.1570 68.5729 TC 25 -23.1813 68.5153 1 23 98
1958016S18060 1958 6 SI MM NOT_NAMED 1958-01-19 00:00:00 TS -23.3134 69.7825 main 1282 1282 O________OP___ jtwc_sh SH091958 -23.3000 69.8000 -1 -23.3000 69.8000 TC 25 -23.3402 69.7474 1 22 98
1958016S18060 1958 6 SI MM NOT_NAMED 1958-01-19 03:00:00 TS -23.4643 70.9553 main 1407 1407 P________PP___ SH091958 -23.4571 70.9674 -1 -23.4571 70.9674 TC 25 -23.4786 70.9309 1 21 98
1958016S18060 1958 6 SI MM NOT_NAMED 1958-01-19 06:00:00 TS -23.6000 72.0000 main 1509 1509 O________OO___ jtwc_sh SH091958 -23.6000 72.0000 -1 -23.6000 72.0000 TC 25 -23.6000 72.0000 1 18 98
1958016S18060 1958 6 SI MM NOT_NAMED 1958-01-19 09:00:00 TS -23.7035 72.8661 main 1601 1601 P________PP___ SH091958 -23.7065 72.8603 -1 -23.7065 72.8603 TC 25 -23.6976 72.8776 1 15 98
1958016S18060 1958 6 SI MM NOT_NAMED 1958-01-19 12:00:00 TS -23.7956 73.6123 main 1673 1673 O________OP___ jtwc_sh SH091958 -23.8000 73.6000 -1 -23.8000 73.6000 TC 25 -23.7868 73.6368 1 13 98
1958016S18060 1958 6 SI MM NOT_NAMED 1958-01-19 15:00:00 TS -23.8889 74.3144 main 1745 1745 P________PP___ SH091958 -23.8919 74.3078 -1 -23.8919 74.3078 TC 25 -23.8829 74.3276 1 13 99
1958016S18060 1958 6 SI MM NOT_NAMED 1958-01-19 18:00:00 TS -24.0000 75.0000 main 1817 1817 O________OO___ jtwc_sh SH091958 -24.0000 75.0000 -1 -24.0000 75.0000 TC 25 -24.0000 75.0000 1 13 101
1958016S18060 1958 6 SI MM NOT_NAMED 1958-01-19 21:00:00 TS -24.1391 75.7317 main 1889 1889 P________PP___ SH091958 -24.1348 75.7501 -1 -24.1348 75.7501 TC 25 -24.1476 75.6949 1 14 103
1958016S18060 1958 6 SI MM NOT_NAMED 1958-01-20 00:00:00 TS -24.3066 76.4716 main 1972 1972 O________OP___ jtwc_sh SH091958 -24.3000 76.5000 -1 -24.3000 76.5000 TC 25 -24.3199 76.4149 1 14 105
1958016S18060 1958 6 SI MM NOT_NAMED 1958-01-20 03:00:00 TS -24.4977 77.1922 main 2046 2046 P________PP___ SH091958 -24.4930 77.2120 -1 -24.4930 77.2120 TC 25 -24.5072 77.1525 1 14 107
1958016S18060 1958 6 SI MM NOT_NAMED 1958-01-20 06:00:00 TS -24.7000 77.9000 main 2119 O________OO___ jtwc_sh SH091958 -24.7000 77.9000 -1 -24.7000 77.9000 TC 25 -24.7000 77.9000 1 13 107

IBTrACS Databaseについて

本データベースは、米国NOAAが公開する1842年以降の世界の熱帯低気圧のベストトラックデータアーカイブInternational Best Track Archive for Climate Stewardship (IBTrACS)を、ウェブで閲覧しやすい形式に変換したものです。

最終更新日:2021-12-01